Time;durP1;ratioP1;P1;durP2;ratioP2;P2;SDS_P1;SDS_P2;PMS_P1;PMS_P2;Temp;Humidity;BMP_temperature;BMP_pressure;BME280_temperature;BME280_humidity;BME280_pressure;Samples;Min_cycle;Max_cycle;Signal;HPM_P1;HPM_P2
2023/04/09 00:00:42;;;;;;;152.80;33.00;;;;;;;3.97;100.00;101999.20;107539;1256;74855;-69
2023/04/09 00:03:09;;;;;;;138.20;32.30;;;;;;;3.98;100.00;102000.05;107041;1254;61339;-72
2023/04/09 00:05:39;;;;;;;179.00;34.00;;;;;;;3.97;100.00;101999.59;106331;1256;70925;-70
2023/04/09 00:08:07;;;;;;;115.40;30.00;;;;;;;3.95;100.00;101997.23;105699;1255;61804;-70
2023/04/09 00:10:34;;;;;;;159.40;31.50;;;;;;;3.94;100.00;101995.58;106826;1254;61237;-69
2023/04/09 00:13:00;;;;;;;145.70;32.90;;;;;;;3.93;100.00;101990.71;106659;1259;72833;-69
2023/04/09 00:15:27;;;;;;;179.50;35.10;;;;;;;3.94;100.00;101989.12;106483;1259;70154;-69
2023/04/09 00:17:57;;;;;;;173.90;35.90;;;;;;;3.94;100.00;101989.47;106217;1256;72826;-68
2023/04/09 00:20:24;;;;;;;118.80;29.30;;;;;;;3.94;100.00;101993.61;106548;1260;61249;-69
2023/04/09 00:22:51;;;;;;;156.90;34.10;;;;;;;3.95;100.00;101991.65;105939;1254;61920;-68
2023/04/09 00:25:18;;;;;;;127.60;33.10;;;;;;;3.95;100.00;101990.23;106703;1255;61266;-67
2023/04/09 00:27:45;;;;;;;145.90;34.80;;;;;;;3.98;100.00;101989.52;106587;1257;70030;-70
2023/04/09 00:30:12;;;;;;;116.50;31.80;;;;;;;4.00;100.00;101987.46;106500;1256;71544;-69
2023/04/09 00:32:38;;;;;;;119.20;31.30;;;;;;;4.01;100.00;101985.65;106867;1253;61245;-70
2023/04/09 00:35:06;;;;;;;91.40;29.70;;;;;;;4.00;100.00;101984.80;106067;1258;61214;-71
2023/04/09 00:37:32;;;;;;;119.50;33.10;;;;;;;3.97;100.00;101982.55;105729;1255;73648;-70
2023/04/09 00:39:59;;;;;;;76.30;29.50;;;;;;;3.96;100.00;101982.64;106333;1258;70439;-70
2023/04/09 00:42:26;;;;;;;106.40;32.60;;;;;;;3.96;100.00;101985.46;107372;1253;72794;-68
2023/04/09 00:44:53;;;;;;;137.50;35.70;;;;;;;3.96;100.00;101983.00;106674;1253;61250;-71
2023/04/09 00:47:20;;;;;;;68.10;30.10;;;;;;;3.97;100.00;101979.78;106425;1255;61351;-70
2023/04/09 00:49:47;;;;;;;102.10;34.70;;;;;;;3.98;100.00;101977.59;105937;1254;75585;-69
2023/04/09 00:52:13;;;;;;;72.80;30.90;;;;;;;3.99;100.00;101981.89;105892;1255;70863;-69
2023/04/09 00:54:40;;;;;;;81.00;31.20;;;;;;;4.00;100.00;101977.80;105664;1256;71598;-71
2023/04/09 00:57:07;;;;;;;111.20;34.40;;;;;;;4.02;100.00;101977.70;107252;1253;61244;-68
2023/04/09 00:59:34;;;;;;;104.20;33.30;;;;;;;4.05;100.00;101977.27;107170;1257;59781;-69
2023/04/09 01:02:00;;;;;;;85.10;31.20;;;;;;;4.08;100.00;101970.30;106961;1254;72555;-69
2023/04/09 01:04:27;;;;;;;68.50;29.90;;;;;;;4.12;100.00;101972.54;106985;1255;69762;-69
2023/04/09 01:07:25;;;;;;;74.00;32.00;;;;;;;4.11;100.00;101967.85;106686;1256;70209;-69
2023/04/09 01:10:44;;;;;;;75.20;31.50;;;;;;;4.10;100.00;101971.06;105904;1256;62073;-71
2023/04/09 01:13:15;;;;;;;87.10;32.50;;;;;;;4.09;100.00;101970.42;106630;1254;61360;-70
2023/04/09 01:15:47;;;;;;;75.50;30.90;;;;;;;4.09;100.00;101974.41;106917;1253;74702;-70
2023/04/09 01:18:21;;;;;;;60.10;28.30;;;;;;;4.09;100.00;101970.07;105885;1256;70953;-70
2023/04/09 01:21:10;;;;;;;121.70;31.10;;;;;;;4.07;100.00;101971.91;105813;1256;72757;-70
2023/04/09 01:23:53;;;;;;;76.90;27.20;;;;;;;4.05;100.00;101975.25;105619;1260;61231;-69
2023/04/09 01:26:23;;;;;;;87.70;30.70;;;;;;;3.99;100.00;101974.92;105946;1256;61666;-71
2023/04/09 01:28:53;;;;;;;79.20;30.30;;;;;;;3.96;100.00;101970.20;105937;1253;74691;-72
2023/04/09 01:31:27;;;;;;;97.00;32.10;;;;;;;3.95;100.00;101971.48;105752;1256;71012;-70
2023/04/09 01:33:54;;;;;;;73.20;27.80;;;;;;;3.95;100.00;101970.95;106128;1258;71134;-69
2023/04/09 01:36:23;;;;;;;83.40;31.50;;;;;;;3.95;100.00;101969.58;105527;1255;61275;-70
2023/04/09 01:38:51;;;;;;;115.90;32.50;;;;;;;3.97;100.00;101970.70;106125;1254;61250;-69
2023/04/09 01:41:21;;;;;;;124.20;33.10;;;;;;;3.97;100.00;101970.33;105637;1255;74731;-71
2023/04/09 01:43:50;;;;;;;128.30;31.10;;;;;;;3.96;100.00;101968.50;106340;1260;69661;-70
2023/04/09 01:46:20;;;;;;;105.60;26.50;;;;;;;3.96;100.00;101960.63;106498;1255;71541;-70
2023/04/09 01:48:48;;;;;;;133.20;27.70;;;;;;;3.94;100.00;101965.26;105951;1256;61357;-71
2023/04/09 01:51:16;;;;;;;95.80;28.10;;;;;;;3.92;100.00;101965.61;106588;1257;61266;-70
2023/04/09 01:53:43;;;;;;;158.80;29.90;;;;;;;3.91;100.00;101966.02;106146;1258;74054;-72
2023/04/09 01:56:09;;;;;;;147.50;30.80;;;;;;;3.89;100.00;101963.36;105802;1256;69682;-72
2023/04/09 01:58:36;;;;;;;113.30;25.80;;;;;;;3.86;100.00;101961.09;106006;1256;70664;-69
2023/04/09 02:01:20;;;;;;;221.70;34.40;;;;;;;3.80;100.00;101956.73;106024;1258;61255;-73
2023/04/09 02:03:53;;;;;;;124.70;28.10;;;;;;;3.77;100.00;101953.96;106300;1255;62246;-69
2023/04/09 02:06:30;;;;;;;174.60;33.40;;;;;;;3.77;100.00;101953.61;105894;1259;73304;-70
2023/04/09 02:09:00;;;;;;;117.50;27.40;;;;;;;3.77;100.00;101952.71;106067;1253;69747;-69
2023/04/09 02:11:30;;;;;;;108.10;28.70;;;;;;;3.74;100.00;101949.93;106399;1256;71763;-69
2023/04/09 02:13:58;;;;;;;103.20;27.80;;;;;;;3.73;100.00;101948.49;105653;1255;61254;-69
2023/04/09 02:16:26;;;;;;;91.00;28.80;;;;;;;3.71;100.00;101945.45;106486;1258;61359;-70
2023/04/09 02:18:55;;;;;;;100.10;29.70;;;;;;;3.71;100.00;101943.88;105766;1257;72601;-68
2023/04/09 02:21:23;;;;;;;103.60;30.40;;;;;;;3.72;100.00;101945.55;106095;1258;69776;-69
2023/04/09 02:23:50;;;;;;;77.10;26.30;;;;;;;3.73;100.00;101948.66;108098;1257;71414;-72
2023/04/09 02:26:16;;;;;;;76.30;23.80;;;;;;;3.68;100.00;101950.52;107818;1257;61392;-70
2023/04/09 02:28:43;;;;;;;83.10;25.80;;;;;;;3.62;100.00;101945.99;105809;1259;61757;-72
2023/04/09 02:31:10;;;;;;;111.90;28.10;;;;;;;3.57;100.00;101950.17;106817;1255;74411;-69
2023/04/09 02:33:37;;;;;;;101.30;27.90;;;;;;;3.54;100.00;101950.38;107645;1256;71751;-71
2023/04/09 02:36:04;;;;;;;99.80;26.00;;;;;;;3.55;100.00;101952.02;106337;1257;72454;-70
2023/04/09 02:38:32;;;;;;;107.60;29.20;;;;;;;3.57;100.00;101954.90;106074;1255;61230;-70
2023/04/09 02:40:58;;;;;;;99.10;28.20;;;;;;;3.56;100.00;101953.73;105999;1255;61352;-70
2023/04/09 02:43:25;;;;;;;86.80;25.90;;;;;;;3.54;100.00;101952.80;105917;1260;75675;-70
2023/04/09 02:45:51;;;;;;;103.80;26.20;;;;;;;3.51;100.00;101954.20;105950;1260;69720;-71
2023/04/09 02:48:18;;;;;;;87.10;25.30;;;;;;;3.48;100.00;101955.16;106236;1256;61284;-71
2023/04/09 02:50:45;;;;;;;117.70;28.80;;;;;;;3.44;100.00;101953.12;105647;1256;61369;-69
2023/04/09 02:53:11;;;;;;;126.50;27.50;;;;;;;3.41;100.00;101950.14;106017;1258;61091;-69
2023/04/09 02:55:38;;;;;;;143.30;28.30;;;;;;;3.36;100.00;101950.61;108901;1254;74387;-69
2023/04/09 02:58:04;;;;;;;114.10;28.80;;;;;;;3.34;100.00;101949.23;108438;1254;69717;-68
2023/04/09 03:00:31;;;;;;;93.40;26.50;;;;;;;3.32;100.00;101945.47;109059;1255;71539;-69
2023/04/09 03:02:58;;;;;;;80.90;24.80;;;;;;;3.32;100.00;101946.54;107703;1255;61389;-72
2023/04/09 03:05:25;;;;;;;89.90;26.40;;;;;;;3.32;100.00;101944.08;105828;1256;61199;-70
2023/04/09 03:07:53;;;;;;;64.20;26.00;;;;;;;3.30;100.00;101943.19;105979;1256;74373;-70
2023/04/09 03:10:19;;;;;;;108.70;26.40;;;;;;;3.31;100.00;101940.67;105965;1257;69714;-69
2023/04/09 03:12:46;;;;;;;108.90;25.10;;;;;;;3.29;100.00;101936.39;105815;1256;72278;-71
2023/04/09 03:15:13;;;;;;;83.10;23.90;;;;;;;3.28;100.00;101935.59;105846;1254;61238;-70
2023/04/09 03:17:39;;;;;;;123.40;30.00;;;;;;;3.26;100.00;101936.20;105826;1259;61188;-70
2023/04/09 03:20:07;;;;;;;128.70;30.80;;;;;;;3.25;100.00;101932.06;106019;1256;73616;-68
2023/04/09 03:22:37;;;;;;;85.70;26.80;;;;;;;3.26;100.00;101931.14;105861;1258;70023;-69
2023/04/09 03:25:04;;;;;;;90.40;26.50;;;;;;;3.28;100.00;101931.43;107389;1255;72866;-70
2023/04/09 03:27:32;;;;;;;93.40;27.70;;;;;;;3.22;100.00;101929.98;108065;1258;61371;-70
2023/04/09 03:29:58;;;;;;;78.00;26.00;;;;;;;3.20;100.00;101930.48;108051;1256;59324;-70
2023/04/09 03:32:25;;;;;;;111.10;29.00;;;;;;;3.20;100.00;101931.67;106954;1257;73527;-70
2023/04/09 03:34:52;;;;;;;90.30;25.60;;;;;;;3.24;100.00;101936.00;106634;1256;71234;-75
2023/04/09 03:37:18;;;;;;;89.40;26.20;;;;;;;3.27;100.00;101932.86;105804;1255;70754;-70
2023/04/09 03:39:45;;;;;;;78.60;25.70;;;;;;;3.28;100.00;101929.45;106085;1259;61269;-70
2023/04/09 03:42:11;;;;;;;74.50;26.10;;;;;;;3.27;100.00;101925.31;105906;1255;60843;-70
2023/04/09 03:44:38;;;;;;;140.80;28.10;;;;;;;3.26;100.00;101931.29;105642;1260;61269;-72
2023/04/09 03:47:04;;;;;;;120.00;27.40;;;;;;;3.26;100.00;101929.56;105860;1256;61253;-70
2023/04/09 03:49:34;;;;;;;131.00;25.90;;;;;;;3.25;100.00;101929.65;105465;1256;62977;-70
2023/04/09 03:52:01;;;;;;;92.60;24.30;;;;;;;3.24;100.00;101929.35;105805;1259;61243;-71
2023/04/09 03:54:29;;;;;;;103.40;26.00;;;;;;;3.22;100.00;101935.75;105564;1254;61182;-70
2023/04/09 03:56:56;;;;;;;88.20;23.50;;;;;;;3.20;100.00;101935.35;106222;1254;74788;-69
2023/04/09 03:59:23;;;;;;;67.50;23.60;;;;;;;3.19;100.00;101938.27;105943;1256;70187;-72
2023/04/09 04:01:50;;;;;;;83.90;25.00;;;;;;;3.17;100.00;101939.73;106914;1254;72375;-69
2023/04/09 04:04:17;;;;;;;81.20;24.40;;;;;;;3.17;100.00;101942.03;108380;1260;61371;-70
2023/04/09 04:06:48;;;;;;;105.20;26.20;;;;;;;3.17;100.00;101942.76;105959;1254;61238;-70
2023/04/09 04:09:14;;;;;;;75.70;23.50;;;;;;;3.15;100.00;101946.17;105707;1256;73478;-71
2023/04/09 04:11:41;;;;;;;109.30;25.40;;;;;;;3.14;100.00;101944.52;107032;1260;61258;-70
2023/04/09 04:14:08;;;;;;;92.70;24.50;;;;;;;3.11;100.00;101943.30;106211;1256;70951;-70
2023/04/09 04:16:34;;;;;;;84.10;23.60;;;;;;;3.07;100.00;101947.54;105845;1254;61388;-69
2023/04/09 04:19:01;;;;;;;99.80;23.30;;;;;;;3.04;100.00;101943.02;106220;1255;61235;-69
2023/04/09 04:21:28;;;;;;;96.00;23.40;;;;;;;3.02;100.00;101943.86;105831;1259;73473;-70
2023/04/09 04:23:55;;;;;;;106.60;26.10;;;;;;;3.01;100.00;101941.83;105819;1259;61332;-70
2023/04/09 04:26:21;;;;;;;118.10;24.70;;;;;;;3.00;100.00;101945.38;105905;1258;72692;-70
2023/04/09 04:28:48;;;;;;;82.30;24.60;;;;;;;3.00;100.00;101945.02;106124;1253;61265;-72
2023/04/09 04:31:15;;;;;;;118.50;28.00;;;;;;;3.00;100.00;101942.38;106053;1256;61276;-70
2023/04/09 04:33:42;;;;;;;83.60;24.20;;;;;;;3.02;100.00;101941.94;106162;1256;73489;-72
2023/04/09 04:36:11;;;;;;;94.70;25.90;;;;;;;3.02;100.00;101940.88;105673;1255;69236;-71
2023/04/09 04:38:38;;;;;;;71.90;20.60;;;;;;;3.02;100.00;101946.64;106197;1257;72748;-70
2023/04/09 04:41:05;;;;;;;163.60;28.90;;;;;;;2.99;100.00;101952.08;106120;1257;61658;-69
2023/04/09 04:43:32;;;;;;;112.00;26.40;;;;;;;2.96;100.00;101955.73;105876;1257;61581;-70
2023/04/09 04:45:59;;;;;;;83.00;27.50;;;;;;;2.97;100.00;101956.54;105821;1254;74412;-70
2023/04/09 04:48:27;;;;;;;115.50;28.80;;;;;;;3.01;100.00;101956.15;106196;1261;71432;-70
2023/04/09 04:50:59;;;;;;;107.10;27.50;;;;;;;3.06;100.00;101958.99;106072;1257;71691;-71
2023/04/09 04:53:26;;;;;;;146.50;31.10;;;;;;;3.08;100.00;101957.98;105710;1254;61287;-69
2023/04/09 04:55:52;;;;;;;123.40;29.30;;;;;;;3.11;100.00;101961.48;105993;1254;61254;-72
2023/04/09 04:58:19;;;;;;;108.00;29.40;;;;;;;3.13;100.00;101960.66;106325;1258;74343;-69
2023/04/09 05:00:47;;;;;;;98.20;29.20;;;;;;;3.16;100.00;101959.91;105882;1261;71165;-70
2023/04/09 05:03:14;;;;;;;83.00;26.30;;;;;;;3.19;100.00;101965.14;105658;1256;72365;-68
2023/04/09 05:05:41;;;;;;;90.60;29.00;;;;;;;3.21;100.00;101962.04;105968;1259;61697;-69
2023/04/09 05:08:07;;;;;;;103.00;28.50;;;;;;;3.25;100.00;101964.27;105761;1259;61247;-69
2023/04/09 05:10:34;;;;;;;84.50;26.80;;;;;;;3.30;100.00;101968.55;106037;1255;74481;-68
2023/04/09 05:13:00;;;;;;;115.40;27.20;;;;;;;3.31;100.00;101970.38;105970;1257;69957;-68
2023/04/09 05:15:27;;;;;;;116.60;27.20;;;;;;;3.32;100.00;101969.60;105806;1254;70538;-68
2023/04/09 05:17:54;;;;;;;96.70;26.20;;;;;;;3.32;100.00;101973.63;105533;1254;61283;-72
2023/04/09 05:20:20;;;;;;;113.70;27.90;;;;;;;3.33;100.00;101972.67;105734;1257;61169;-68
2023/04/09 05:22:47;;;;;;;76.40;23.70;;;;;;;3.34;100.00;101974.20;105999;1259;61272;-70
2023/04/09 05:25:15;;;;;;;74.50;24.70;;;;;;;3.35;100.00;101978.72;105800;1254;61277;-71
2023/04/09 05:27:41;;;;;;;57.10;20.10;;;;;;;3.36;100.00;101978.23;106037;1254;72591;-73
2023/04/09 05:30:08;;;;;;;55.30;20.60;;;;;;;3.35;100.00;101976.23;106677;1257;61382;-69
2023/04/09 05:32:36;;;;;;;45.00;17.70;;;;;;;3.34;100.00;101973.86;105941;1257;61368;-70
2023/04/09 05:35:04;;;;;;;81.60;22.40;;;;;;;3.30;100.00;101977.80;105560;1260;345105;-71
2023/04/09 05:37:31;;;;;;;59.60;19.90;;;;;;;3.31;100.00;101976.99;105766;1255;69913;-70
2023/04/09 05:39:57;;;;;;;60.50;19.40;;;;;;;3.34;100.00;101975.74;106227;1254;71526;-70
2023/04/09 05:42:24;;;;;;;69.10;21.80;;;;;;;3.38;100.00;101982.13;105499;1257;61625;-69
2023/04/09 05:44:51;;;;;;;60.60;19.20;;;;;;;3.44;100.00;101980.04;106385;1258;61242;-69
2023/04/09 05:47:18;;;;;;;61.90;21.10;;;;;;;3.48;100.00;101978.02;106284;1258;73128;-70
2023/04/09 05:49:44;;;;;;;92.00;21.00;;;;;;;3.54;100.00;101980.23;105999;1256;71015;-70
2023/04/09 05:52:11;;;;;;;78.60;20.70;;;;;;;3.60;100.00;101981.13;106168;1260;62788;-70
2023/04/09 05:54:38;;;;;;;56.60;19.70;;;;;;;3.66;100.00;101981.94;107703;1254;62089;-69
2023/04/09 05:57:05;;;;;;;39.70;18.10;;;;;;;3.71;100.00;101979.73;108931;1257;59114;-69
2023/04/09 05:59:32;;;;;;;33.00;16.60;;;;;;;3.76;100.00;101978.02;108306;1258;74364;-70
2023/04/09 06:01:59;;;;;;;43.70;18.80;;;;;;;3.79;100.00;101976.71;106454;1261;72128;-69
2023/04/09 06:04:35;;;;;;;33.70;18.10;;;;;;;3.83;100.00;101978.41;107591;1254;72512;-74
2023/04/09 06:07:01;;;;;;;40.20;19.20;;;;;;;3.90;100.00;101984.30;106004;1260;61234;-75
2023/04/09 06:09:28;;;;;;;43.00;18.40;;;;;;;3.99;100.00;101982.11;105874;1255;61338;-72
2023/04/09 06:11:56;;;;;;;33.00;17.00;;;;;;;4.08;100.00;101981.52;105906;1254;74500;-77
2023/04/09 06:14:23;;;;;;;37.40;19.80;;;;;;;4.15;100.00;101975.10;106435;1260;69679;-75
2023/04/09 06:16:50;;;;;;;45.40;23.40;;;;;;;4.24;100.00;101980.48;106013;1255;72895;-75
2023/04/09 06:19:17;;;;;;;39.50;20.10;;;;;;;4.34;100.00;101976.25;106365;1255;61135;-75
2023/04/09 06:21:44;;;;;;;36.00;19.50;;;;;;;4.46;100.00;101981.60;105683;1257;61824;-76
2023/04/09 06:24:10;;;;;;;39.00;19.20;;;;;;;4.59;100.00;101979.89;106166;1257;74722;-76
2023/04/09 06:26:37;;;;;;;30.20;19.70;;;;;;;4.69;100.00;101981.67;105867;1257;72270;-77
2023/04/09 06:29:04;;;;;;;32.00;19.10;;;;;;;4.78;100.00;101984.31;105880;1253;71483;-77
2023/04/09 06:31:33;;;;;;;29.20;19.20;;;;;;;4.87;100.00;101979.52;106312;1258;61323;-77
2023/04/09 06:34:01;;;;;;;30.40;19.70;;;;;;;4.98;100.00;101981.08;106221;1258;61234;-76
2023/04/09 06:36:31;;;;;;;26.60;18.00;;;;;;;5.09;100.00;101982.77;105702;1257;74336;-75
2023/04/09 06:38:58;;;;;;;30.80;19.40;;;;;;;5.23;100.00;101984.88;106910;1254;69685;-76
2023/04/09 06:41:25;;;;;;;28.80;19.10;;;;;;;5.38;100.00;101985.45;105908;1257;73930;-83
2023/04/09 06:43:52;;;;;;;30.60;19.50;;;;;;;5.50;100.00;101986.48;106970;1255;61333;-75
2023/04/09 06:46:20;;;;;;;27.70;18.90;;;;;;;5.60;100.00;101985.77;106954;1254;61269;-75
2023/04/09 06:48:47;;;;;;;28.70;18.00;;;;;;;5.69;100.00;101987.19;107219;1254;73569;-75
2023/04/09 06:51:14;;;;;;;29.90;18.80;;;;;;;5.81;100.00;101986.39;107299;1257;69669;-75
2023/04/09 06:53:41;;;;;;;27.70;17.80;;;;;;;5.92;100.00;101988.77;106983;1258;73864;-75
2023/04/09 06:56:08;;;;;;;28.30;17.40;;;;;;;5.98;100.00;101988.81;107696;1253;61122;-75
2023/04/09 06:58:38;;;;;;;26.50;18.50;;;;;;;6.04;100.00;101987.01;106889;1256;61268;-76
2023/04/09 07:01:05;;;;;;;28.60;19.20;;;;;;;6.08;99.97;101990.38;105906;1258;75958;-76
2023/04/09 07:03:34;;;;;;;26.40;17.90;;;;;;;6.11;99.98;101991.55;105912;1253;68879;-76
2023/04/09 07:06:01;;;;;;;25.70;18.00;;;;;;;6.17;99.94;101988.35;105915;1254;72693;-76
2023/04/09 07:08:31;;;;;;;26.90;18.40;;;;;;;6.25;99.82;101989.98;106698;1253;61178;-75
2023/04/09 07:10:57;;;;;;;28.30;18.60;;;;;;;6.39;99.80;101994.05;106244;1257;61622;-77
2023/04/09 07:13:24;;;;;;;26.90;18.90;;;;;;;6.51;99.40;101998.63;106263;1258;61232;-74
2023/04/09 07:15:51;;;;;;;27.70;17.90;;;;;;;6.63;99.34;101996.66;107438;1254;70499;-76
2023/04/09 07:18:18;;;;;;;26.40;18.00;;;;;;;6.78;99.16;101997.60;106971;1255;72085;-75
2023/04/09 07:20:45;;;;;;;28.90;19.90;;;;;;;6.91;98.56;101996.08;107070;1254;62548;-75
2023/04/09 07:23:13;;;;;;;28.00;19.30;;;;;;;7.04;98.25;101995.41;106786;1256;62066;-75
2023/04/09 07:25:40;;;;;;;28.00;19.20;;;;;;;7.13;97.41;101999.97;106803;1257;73435;-75
2023/04/09 07:28:07;;;;;;;27.40;18.80;;;;;;;7.18;96.47;101993.80;106801;1254;71190;-74
2023/04/09 07:30:34;;;;;;;28.80;18.90;;;;;;;7.24;95.96;101998.98;106752;1257;71482;-75
2023/04/09 07:33:01;;;;;;;27.30;18.20;;;;;;;7.32;95.86;101997.80;107058;1254;61132;-75
2023/04/09 07:35:28;;;;;;;26.70;18.60;;;;;;;7.42;95.76;101997.52;106452;1259;61247;-77
2023/04/09 07:37:56;;;;;;;27.10;18.60;;;;;;;7.54;95.94;101997.48;106606;1260;73008;-75
2023/04/09 07:40:22;;;;;;;28.00;18.80;;;;;;;7.64;95.03;101997.52;106829;1254;70950;-75
2023/04/09 07:42:49;;;;;;;25.80;19.00;;;;;;;7.74;94.28;101995.95;107305;1254;72699;-75
2023/04/09 07:45:16;;;;;;;24.10;17.10;;;;;;;7.85;93.90;101996.34;106846;1254;61221;-75
2023/04/09 07:47:43;;;;;;;25.00;16.70;;;;;;;7.99;94.03;101996.08;107516;1257;61442;-75
2023/04/09 07:50:11;;;;;;;25.50;17.30;;;;;;;8.12;93.24;101998.53;107436;1254;74731;-75
2023/04/09 07:52:38;;;;;;;24.20;16.80;;;;;;;8.22;92.66;101997.54;106838;1257;72396;-73
2023/04/09 07:55:05;;;;;;;23.50;15.90;;;;;;;8.23;91.06;101990.40;107410;1257;72397;-74
2023/04/09 07:57:32;;;;;;;26.70;17.10;;;;;;;8.26;90.95;101999.58;106969;1253;61270;-73
2023/04/09 07:59:59;;;;;;;23.30;16.10;;;;;;;8.25;90.34;102001.02;107261;1256;61245;-74
2023/04/09 08:02:26;;;;;;;23.30;14.40;;;;;;;8.22;89.95;101995.11;107380;1254;74016;-73
2023/04/09 08:04:53;;;;;;;25.70;16.50;;;;;;;8.20;89.82;102001.64;107294;1254;72069;-73
2023/04/09 08:07:20;;;;;;;22.70;14.20;;;;;;;8.22;89.96;101999.73;106228;1257;72404;-73
2023/04/09 08:09:47;;;;;;;22.40;14.70;;;;;;;8.11;88.23;101997.41;107457;1254;61290;-74
2023/04/09 08:12:14;;;;;;;24.30;15.20;;;;;;;8.02;88.06;102002.22;106566;1254;61592;-70
2023/04/09 08:14:40;;;;;;;25.00;16.60;;;;;;;7.92;87.99;102001.07;106468;1254;59938;-70
2023/04/09 08:17:07;;;;;;;22.90;15.20;;;;;;;7.87;89.15;101998.51;106505;1254;70896;-70
2023/04/09 08:19:34;;;;;;;26.00;16.40;;;;;;;7.83;89.08;101997.80;107043;1257;72714;-70
2023/04/09 08:22:01;;;;;;;28.00;17.30;;;;;;;7.87;89.73;102002.04;106884;1260;61344;-70
2023/04/09 08:24:28;;;;;;;25.50;16.70;;;;;;;7.92;90.07;101999.52;107241;1254;61753;-70
2023/04/09 08:26:55;;;;;;;25.10;16.10;;;;;;;7.95;89.34;102000.11;106798;1257;72850;-70
2023/04/09 08:29:22;;;;;;;26.30;17.30;;;;;;;8.02;89.71;102004.30;107690;1254;70164;-70
2023/04/09 08:31:48;;;;;;;26.70;17.80;;;;;;;8.12;89.89;102005.98;107514;1257;74271;-70
2023/04/09 08:34:16;;;;;;;26.00;17.80;;;;;;;8.28;89.36;102009.80;106725;1255;61315;-70
2023/04/09 08:36:46;;;;;;;25.80;17.00;;;;;;;8.53;88.75;102000.33;106711;1254;61248;-70
2023/04/09 08:39:14;;;;;;;26.00;16.80;;;;;;;8.73;86.99;101998.92;106929;1254;72973;-71
2023/04/09 08:41:45;;;;;;;27.80;19.30;;;;;;;8.96;86.98;101999.08;107239;1259;70112;-71
2023/04/09 08:44:12;;;;;;;25.50;17.10;;;;;;;9.23;86.34;101999.95;106431;1255;71290;-70
2023/04/09 08:46:38;;;;;;;27.20;18.20;;;;;;;9.45;85.34;102002.30;107233;1254;60888;-71
2023/04/09 08:49:08;;;;;;;26.30;17.30;;;;;;;9.66;84.12;101999.88;107605;1254;61099;-71
2023/04/09 08:51:34;;;;;;;28.90;18.40;;;;;;;9.83;83.08;101999.02;106837;1260;75426;-71
2023/04/09 08:54:01;;;;;;;26.60;17.90;;;;;;;9.96;82.02;101999.95;106648;1257;71093;-74
2023/04/09 08:56:30;;;;;;;28.60;18.60;;;;;;;10.04;81.12;102002.52;106642;1254;72730;-70
2023/04/09 08:58:57;;;;;;;26.30;18.00;;;;;;;10.05;80.53;101998.83;107160;1258;61785;-71
2023/04/09 09:01:31;;;;;;;27.10;17.60;;;;;;;10.08;80.48;101998.77;107321;1256;61195;-71
2023/04/09 09:03:59;;;;;;;30.30;20.30;;;;;;;10.06;79.81;101997.50;107259;1254;74596;-71
2023/04/09 09:06:31;;;;;;;25.80;17.90;;;;;;;10.05;79.71;101998.13;106822;1255;70282;-71
2023/04/09 09:09:06;;;;;;;28.00;17.90;;;;;;;10.03;79.34;101998.66;107346;1254;70970;-71
2023/04/09 09:11:34;;;;;;;31.20;20.00;;;;;;;9.99;79.07;101996.02;106961;1257;62094;-70
2023/04/09 09:14:12;;;;;;;31.60;20.70;;;;;;;9.99;79.17;101991.98;107025;1253;61046;-70
2023/04/09 09:17:02;;;;;;;31.40;20.50;;;;;;;10.04;78.64;101989.58;106566;1254;75736;-71
2023/04/09 09:19:34;;;;;;;25.20;17.10;;;;;;;10.15;79.01;101989.44;105901;1257;70047;-71
2023/04/09 09:22:04;;;;;;;23.60;15.70;;;;;;;10.18;77.50;101988.08;107062;1254;72716;-70
2023/04/09 09:24:32;;;;;;;25.00;16.40;;;;;;;10.23;77.53;101990.80;107798;1254;62149;-70
2023/04/09 09:27:00;;;;;;;22.20;15.20;;;;;;;10.33;77.59;101988.73;107412;1253;61168;-70
2023/04/09 09:29:27;;;;;;;22.80;15.60;;;;;;;10.36;77.02;101988.23;106735;1256;75840;-70
2023/04/09 09:31:55;;;;;;;23.80;16.20;;;;;;;10.38;76.81;101984.56;107406;1254;70950;-70
2023/04/09 09:34:24;;;;;;;21.20;15.10;;;;;;;10.43;76.93;101987.08;107610;1254;72937;-71
2023/04/09 09:36:51;;;;;;;21.90;15.80;;;;;;;10.44;76.21;101987.21;106049;1254;62428;-72
2023/04/09 09:39:18;;;;;;;21.70;15.10;;;;;;;10.46;76.03;101987.67;105795;1259;61647;-72
2023/04/09 09:41:45;;;;;;;20.80;14.70;;;;;;;10.45;74.93;101988.66;108035;1254;72719;-71
2023/04/09 09:44:30;;;;;;;24.00;15.40;;;;;;;10.47;74.25;101990.61;108823;1254;70774;-70
2023/04/09 09:46:58;;;;;;;20.90;14.60;;;;;;;10.55;74.61;101991.27;106630;1256;71211;-74
2023/04/09 09:49:25;;;;;;;21.30;14.70;;;;;;;10.60;73.63;101993.23;106472;1256;61320;-74
2023/04/09 09:51:56;;;;;;;20.90;14.70;;;;;;;10.65;73.48;101990.77;105881;1257;61428;-72
2023/04/09 09:54:25;;;;;;;21.60;14.80;;;;;;;10.69;73.09;101989.25;106624;1254;75424;-71
2023/04/09 09:56:54;;;;;;;19.00;13.70;;;;;;;10.76;73.41;101991.95;105541;1255;70946;-71
2023/04/09 09:59:31;;;;;;;19.80;13.80;;;;;;;10.84;72.72;101989.59;105959;1258;73626;-71
2023/04/09 10:02:04;;;;;;;20.40;14.70;;;;;;;10.90;72.33;101993.52;106614;1254;61247;-73
2023/04/09 10:04:36;;;;;;;21.70;15.10;;;;;;;10.99;72.07;101990.52;106100;1254;61112;-71
2023/04/09 10:07:05;;;;;;;21.30;14.40;;;;;;;11.01;71.54;101988.71;105529;1257;73482;-71
2023/04/09 10:09:47;;;;;;;21.40;14.80;;;;;;;11.01;71.39;101988.72;105719;1254;70256;-71
2023/04/09 10:12:15;;;;;;;21.90;15.70;;;;;;;11.00;71.41;101984.86;106546;1258;71265;-75
2023/04/09 10:14:44;;;;;;;21.40;15.00;;;;;;;10.98;71.27;101984.20;105935;1255;62357;-71
2023/04/09 10:17:10;;;;;;;21.90;14.50;;;;;;;10.98;71.38;101984.73;105724;1256;61275;-71
2023/04/09 10:19:43;;;;;;;22.90;15.40;;;;;;;10.94;70.78;101989.20;106284;1254;74536;-71
2023/04/09 10:22:12;;;;;;;23.70;16.30;;;;;;;10.95;71.25;101982.02;105998;1255;71142;-70
2023/04/09 10:24:39;;;;;;;22.60;15.30;;;;;;;10.93;71.15;101977.60;105954;1257;71115;-72
2023/04/09 10:27:11;;;;;;;21.00;14.00;;;;;;;10.86;71.26;101971.73;105917;1260;61099;-72
2023/04/09 10:29:44;;;;;;;23.40;16.10;;;;;;;10.75;71.47;101973.17;107031;1253;61170;-73
2023/04/09 10:32:11;;;;;;;23.20;16.10;;;;;;;10.67;72.13;101972.63;106756;1254;72374;-70
2023/04/09 10:34:40;;;;;;;26.20;17.00;;;;;;;10.62;72.56;101969.91;106165;1254;69746;-71
2023/04/09 10:37:15;;;;;;;25.50;17.00;;;;;;;10.57;72.61;101970.34;106650;1254;72809;-72
2023/04/09 10:39:47;;;;;;;23.10;15.90;;;;;;;10.52;72.95;101966.80;106293;1254;61709;-71
2023/04/09 10:42:20;;;;;;;23.60;16.40;;;;;;;10.47;73.59;101965.70;105989;1254;61360;-71
2023/04/09 10:45:12;;;;;;;25.30;17.40;;;;;;;10.39;73.47;101959.48;106020;1254;73140;-70
2023/04/09 10:47:42;;;;;;;23.40;16.00;;;;;;;10.35;73.99;101954.25;108230;1254;69735;-71
2023/04/09 10:50:18;;;;;;;23.40;15.80;;;;;;;10.33;74.06;101950.58;107172;1255;73588;-71
2023/04/09 10:52:45;;;;;;;26.10;18.40;;;;;;;10.28;74.43;101948.14;105781;1255;61363;-73
2023/04/09 10:55:35;;;;;;;25.50;17.50;;;;;;;10.28;75.07;101943.33;107037;1254;61144;-69
2023/04/09 10:58:06;;;;;;;27.10;17.50;;;;;;;10.31;75.39;101947.38;106899;1254;73539;-72
2023/04/09 11:00:38;;;;;;;27.50;18.10;;;;;;;10.27;74.87;101944.45;105674;1256;70171;-72
2023/04/09 11:03:07;;;;;;;27.10;17.80;;;;;;;10.23;75.30;101942.56;107323;1254;71567;-72
2023/04/09 11:05:39;;;;;;;31.80;19.50;;;;;;;10.15;75.51;101942.42;105799;1255;61284;-70
2023/04/09 11:08:08;;;;;;;28.80;19.30;;;;;;;10.09;76.06;101941.93;105762;1257;61649;-71